Denbigh, North Dakota
Current Conditions -  °F | °C
As of 10:35 AM on Saturday 20 Dec 2014 (Local Time) from KRUG Reporting Station
Moderate Fog Moderate Fog  
Wind Chill: 15°   Ceiling: 100
Heat Index: 23°   Visibility: 0.5mi
Dew Point: 23°   Wind: 7mph
Humidity: 100%   Direction: 160°SSE
Pressure: 29.91"   Gusts: NA
Location:  48.4251°N, 100.424°W
Report Text: KRUG 201635Z AUTO 16006KT 1/2SM FZFG OVC001 M05/M05 A2991 RMK AO2
Loading
Personal Weather Stations






























Interactive Weather Map New forecast layout! Learn more

10-Day Weather Forecast

Advertisements
Track Severe Weather on mobile